Time;durP1;ratioP1;P1;durP2;ratioP2;P2;SDS_P1;SDS_P2;PMS_P1;PMS_P2;Temp;Humidity;BMP_temperature;BMP_pressure;BME280_temperature;BME280_humidity;BME280_pressure;Samples;Min_cycle;Max_cycle;Signal;HPM_P1;HPM_P2
2021/07/01 00:00:51;;;;;;;2.60;2.40;;;18.10;94.90;;;;;;5001706;28;20045;-87
2021/07/01 00:03:16;;;;;;;2.22;1.88;;;18.10;94.80;;;;;;5007420;28;20042;-88
2021/07/01 00:05:43;;;;;;;5.05;2.53;;;18.10;94.70;;;;;;5007938;28;20364;-86
2021/07/01 00:08:09;;;;;;;4.93;2.42;;;18.10;94.70;;;;;;5012215;28;20104;-88
2021/07/01 00:10:35;;;;;;;4.95;2.45;;;18.00;94.70;;;;;;5006331;28;20042;-89
2021/07/01 00:13:01;;;;;;;3.05;2.38;;;18.00;94.70;;;;;;5019515;28;20173;-88
2021/07/01 00:15:29;;;;;;;3.88;2.50;;;18.00;94.90;;;;;;5012917;28;20116;-87
2021/07/01 00:17:54;;;;;;;4.15;2.53;;;17.80;95.10;;;;;;5006673;28;20327;-88
2021/07/01 00:20:21;;;;;;;5.68;2.35;;;17.80;95.20;;;;;;5008382;28;20045;-88
2021/07/01 00:22:47;;;;;;;5.30;3.25;;;17.80;95.30;;;;;;5001015;28;20035;-89
2021/07/01 00:25:14;;;;;;;4.22;2.70;;;17.80;95.40;;;;;;5011873;28;20042;-89
2021/07/01 00:27:40;;;;;;;3.25;2.78;;;17.80;95.40;;;;;;5016308;28;20045;-88
2021/07/01 00:30:08;;;;;;;3.03;2.70;;;17.70;95.50;;;;;;5013470;28;20034;-88
2021/07/01 00:32:34;;;;;;;3.88;2.70;;;17.80;95.50;;;;;;5012378;28;20104;-87
2021/07/01 00:35:00;;;;;;;3.70;2.70;;;17.80;95.40;;;;;;5002268;28;20333;-88
2021/07/01 00:37:28;;;;;;;3.47;2.75;;;17.70;95.40;;;;;;5014558;28;20034;-87
2021/07/01 00:39:55;;;;;;;4.50;2.22;;;17.80;95.40;;;;;;5043360;28;20029;-88
2021/07/01 00:42:21;;;;;;;3.40;2.58;;;17.80;95.40;;;;;;5027660;28;20018;-87
2021/07/01 00:44:46;;;;;;;3.13;2.45;;;17.80;95.50;;;;;;5033832;28;20046;-87
2021/07/01 00:47:12;;;;;;;4.30;3.00;;;17.80;95.60;;;;;;5035445;28;20060;-87
2021/07/01 00:49:37;;;;;;;3.47;2.45;;;17.70;95.70;;;;;;5027443;28;20038;-86
2021/07/01 00:52:03;;;;;;;3.63;2.67;;;17.70;95.70;;;;;;5032769;28;20049;-88
2021/07/01 00:54:29;;;;;;;5.72;2.40;;;17.70;95.70;;;;;;5018060;28;20097;-88
2021/07/01 00:56:54;;;;;;;2.30;2.10;;;17.70;95.80;;;;;;5004253;28;20045;-88
2021/07/01 00:59:21;;;;;;;4.45;2.35;;;17.70;95.80;;;;;;5044986;28;20137;-87
2021/07/01 01:01:46;;;;;;;3.20;2.08;;;17.70;95.70;;;;;;5008279;28;20123;-87
2021/07/01 01:04:12;;;;;;;3.63;1.90;;;17.70;95.80;;;;;;5000166;28;20397;-89
2021/07/01 01:06:38;;;;;;;3.88;1.60;;;17.70;96.00;;;;;;5003406;28;20081;-89
2021/07/01 01:09:09;;;;;;;1.92;1.65;;;17.70;95.80;;;;;;5001219;28;20121;-88
2021/07/01 01:11:34;;;;;;;2.05;1.67;;;17.80;96.00;;;;;;5006371;28;20061;-87
2021/07/01 01:14:00;;;;;;;2.50;2.30;;;17.80;95.80;;;;;;5009307;28;20053;-87
2021/07/01 01:16:25;;;;;;;2.08;1.73;;;17.70;95.80;;;;;;5009611;28;20033;-89
2021/07/01 01:18:51;;;;;;;2.45;1.67;;;17.70;95.80;;;;;;5004072;28;20041;-88
2021/07/01 01:21:23;;;;;;;2.03;1.80;;;17.70;95.90;;;;;;5001559;28;20406;-87
2021/07/01 01:23:48;;;;;;;2.20;1.70;;;17.70;95.90;;;;;;5027410;28;20060;-87
2021/07/01 01:26:14;;;;;;;2.17;1.55;;;17.70;96.00;;;;;;5008671;28;20037;-88
2021/07/01 01:28:40;;;;;;;2.30;2.10;;;17.70;96.10;;;;;;5008926;28;20092;-87
2021/07/01 01:31:06;;;;;;;13.93;1.88;;;17.70;96.00;;;;;;5006576;28;20070;-88
2021/07/01 01:33:32;;;;;;;2.38;2.15;;;17.70;95.90;;;;;;5010424;28;20103;-87
2021/07/01 01:35:58;;;;;;;2.25;2.05;;;17.60;96.00;;;;;;5012788;28;20517;-87
2021/07/01 01:38:24;;;;;;;2.08;1.70;;;17.60;95.90;;;;;;5010136;28;20129;-89
2021/07/01 01:40:50;;;;;;;3.80;1.92;;;17.60;96.00;;;;;;5011433;28;20038;-88
2021/07/01 01:43:18;;;;;;;1.80;1.70;;;17.60;95.80;;;;;;5003741;28;20049;-88
2021/07/01 01:45:44;;;;;;;2.53;1.60;;;17.60;96.00;;;;;;5012000;28;20053;-89
2021/07/01 01:48:10;;;;;;;3.40;1.92;;;17.60;96.00;;;;;;5013661;28;20176;-86
2021/07/01 01:50:36;;;;;;;2.78;1.85;;;17.60;95.90;;;;;;5030733;28;20037;-86
2021/07/01 01:53:02;;;;;;;2.65;2.17;;;17.60;96.10;;;;;;5010051;28;20050;-87
2021/07/01 01:55:28;;;;;;;3.13;1.73;;;17.50;96.10;;;;;;5003881;28;20034;-87
2021/07/01 01:57:53;;;;;;;4.05;2.38;;;17.50;96.10;;;;;;5020989;28;20073;-88
2021/07/01 02:00:21;;;;;;;4.95;2.25;;;17.50;96.10;;;;;;5034762;28;20428;-87
2021/07/01 02:02:47;;;;;;;3.17;2.05;;;17.50;96.10;;;;;;5006057;28;20030;-88
2021/07/01 02:05:13;;;;;;;2.70;2.45;;;17.50;96.10;;;;;;5013825;28;20099;-88
2021/07/01 02:07:40;;;;;;;3.83;2.28;;;17.50;96.20;;;;;;5009675;28;20037;-87
2021/07/01 02:10:08;;;;;;;2.92;2.40;;;17.50;96.50;;;;;;5023993;28;20102;-88
2021/07/01 02:12:34;;;;;;;8.82;2.25;;;17.50;96.30;;;;;;5006736;28;20170;-89
2021/07/01 02:15:01;;;;;;;2.53;2.33;;;17.50;96.30;;;;;;5004716;28;20558;-87
2021/07/01 02:17:26;;;;;;;2.85;2.33;;;17.50;96.30;;;;;;5004041;28;20034;-88
2021/07/01 02:19:52;;;;;;;2.33;2.13;;;17.50;96.40;;;;;;5008849;28;20036;-88
2021/07/01 02:22:18;;;;;;;3.53;2.38;;;17.50;96.30;;;;;;5004560;28;20049;-89
2021/07/01 02:24:44;;;;;;;6.78;2.63;;;17.50;96.30;;;;;;5003657;28;20453;-88
2021/07/01 02:27:10;;;;;;;3.20;2.55;;;17.60;96.40;;;;;;5003563;28;20179;-87
2021/07/01 02:29:35;;;;;;;4.13;2.40;;;17.50;96.50;;;;;;5016796;28;20038;-87
2021/07/01 02:32:02;;;;;;;2.90;2.60;;;17.50;96.40;;;;;;5025877;28;20057;-86
2021/07/01 02:34:28;;;;;;;3.08;2.78;;;17.60;96.30;;;;;;5012028;28;20310;-87
2021/07/01 02:36:53;;;;;;;4.18;3.20;;;17.60;96.30;;;;;;5036650;28;20034;-86
2021/07/01 02:39:19;;;;;;;3.20;2.90;;;17.60;96.40;;;;;;5027814;28;20306;-86
2021/07/01 02:41:44;;;;;;;3.80;3.40;;;17.60;96.40;;;;;;5055812;28;20030;-86
2021/07/01 02:44:10;;;;;;;5.05;3.80;;;17.60;96.50;;;;;;5022208;28;20098;-87
2021/07/01 02:46:35;;;;;;;3.95;3.25;;;17.50;96.50;;;;;;5009006;28;20362;-86
2021/07/01 02:49:01;;;;;;;4.22;3.80;;;17.50;96.60;;;;;;5003697;28;20038;-86
2021/07/01 02:51:26;;;;;;;3.78;3.20;;;17.50;96.70;;;;;;5007116;28;20053;-86
2021/07/01 02:53:52;;;;;;;7.90;4.90;;;17.50;96.80;;;;;;5003891;28;20049;-86
2021/07/01 02:56:18;;;;;;;6.20;4.78;;;17.50;96.80;;;;;;5013562;28;20117;-85
2021/07/01 02:58:44;;;;;;;6.93;4.95;;;17.50;96.90;;;;;;5007997;28;20562;-87
2021/07/01 03:01:09;;;;;;;6.47;5.00;;;17.50;96.90;;;;;;5040932;28;20104;-88
2021/07/01 03:03:35;;;;;;;5.70;5.07;;;17.50;96.80;;;;;;5017769;28;20037;-87
2021/07/01 03:06:01;;;;;;;6.72;5.85;;;17.50;96.80;;;;;;5024709;28;20030;-85
2021/07/01 03:08:27;;;;;;;8.30;5.43;;;17.50;96.80;;;;;;5025708;28;20092;-86
2021/07/01 03:10:52;;;;;;;7.50;5.63;;;17.50;96.70;;;;;;5010976;28;20488;-86
2021/07/01 03:13:18;;;;;;;6.35;5.60;;;17.50;96.80;;;;;;5010881;28;20054;-86
2021/07/01 03:15:43;;;;;;;7.70;6.18;;;17.50;96.80;;;;;;5003514;28;20069;-85
2021/07/01 03:18:09;;;;;;;8.32;5.90;;;17.50;96.80;;;;;;5035155;28;20039;-86
2021/07/01 03:20:34;;;;;;;9.10;7.22;;;17.50;96.80;;;;;;5023086;28;20034;-86
2021/07/01 03:23:02;;;;;;;9.40;6.30;;;17.50;96.80;;;;;;5009366;28;20140;-86
2021/07/01 03:25:27;;;;;;;8.18;6.80;;;17.40;96.90;;;;;;5009828;28;20065;-87
2021/07/01 03:27:53;;;;;;;8.77;6.38;;;17.40;96.90;;;;;;5008105;28;20069;-86
2021/07/01 03:30:18;;;;;;;10.73;7.55;;;17.40;96.80;;;;;;5042347;28;20045;-86
2021/07/01 03:32:45;;;;;;;8.45;6.90;;;17.40;96.80;;;;;;5015166;28;20042;-87
2021/07/01 03:35:11;;;;;;;11.05;6.22;;;17.40;96.80;;;;;;5018771;28;20057;-88
2021/07/01 03:37:36;;;;;;;11.07;7.68;;;17.40;97.00;;;;;;5031885;28;20037;-89
2021/07/01 03:40:03;;;;;;;9.93;7.45;;;17.40;97.00;;;;;;5035699;28;20042;-88
2021/07/01 03:42:29;;;;;;;9.38;7.05;;;17.40;96.90;;;;;;5070825;28;20042;-86
2021/07/01 03:44:54;;;;;;;10.70;7.60;;;17.50;97.20;;;;;;5025303;28;20049;-87
2021/07/01 03:47:20;;;;;;;9.63;7.55;;;17.40;97.00;;;;;;5032480;28;20030;-89
2021/07/01 03:49:46;;;;;;;9.88;7.38;;;17.50;97.00;;;;;;5021410;28;20045;-85
2021/07/01 03:52:11;;;;;;;10.68;7.18;;;17.50;96.90;;;;;;5026171;28;20297;-86
2021/07/01 03:54:37;;;;;;;10.32;7.07;;;17.60;96.80;;;;;;5010279;28;20030;-88
2021/07/01 03:57:03;;;;;;;8.05;6.55;;;17.60;96.60;;;;;;5014487;28;20064;-87
2021/07/01 03:59:28;;;;;;;10.38;7.85;;;17.60;96.50;;;;;;5045469;28;20436;-87
2021/07/01 04:01:54;;;;;;;10.55;6.57;;;17.60;96.70;;;;;;5008990;28;20386;-86
2021/07/01 04:04:19;;;;;;;9.02;6.90;;;17.60;96.40;;;;;;5018885;28;20046;-87
2021/07/01 04:06:45;;;;;;;11.00;7.28;;;17.60;96.50;;;;;;5006384;28;20038;-88
2021/07/01 04:09:10;;;;;;;8.65;6.85;;;17.70;96.40;;;;;;5008934;28;20053;-88
2021/07/01 04:11:36;;;;;;;8.10;6.57;;;17.70;96.50;;;;;;5013156;28;20405;-85
2021/07/01 04:14:02;;;;;;;8.57;7.03;;;17.80;96.10;;;;;;5003949;28;20038;-85
2021/07/01 04:16:28;;;;;;;8.65;6.85;;;17.70;96.10;;;;;;5006506;28;20031;-85
2021/07/01 04:18:53;;;;;;;8.07;7.00;;;17.60;96.30;;;;;;5007278;28;20279;-87
2021/07/01 04:21:20;;;;;;;11.95;7.28;;;17.70;96.30;;;;;;5009664;28;20492;-86
2021/07/01 04:23:46;;;;;;;8.85;6.68;;;17.70;96.10;;;;;;5022221;28;20030;-87
2021/07/01 04:26:12;;;;;;;10.68;7.40;;;17.70;96.20;;;;;;5014101;28;20074;-85
2021/07/01 04:28:38;;;;;;;8.40;7.28;;;17.70;96.20;;;;;;5007286;28;20464;-87
2021/07/01 04:31:03;;;;;;;8.50;6.45;;;17.80;96.20;;;;;;5005856;28;20136;-88
2021/07/01 04:33:29;;;;;;;8.77;6.88;;;17.80;96.10;;;;;;5003938;28;20057;-88
2021/07/01 04:35:56;;;;;;;8.93;6.72;;;17.80;96.00;;;;;;5003088;28;20038;-85
2021/07/01 04:38:23;;;;;;;10.25;6.60;;;17.90;95.90;;;;;;5038592;28;20041;-86
2021/07/01 04:40:48;;;;;;;9.65;7.13;;;18.00;95.80;;;;;;5034446;28;20491;-88
2021/07/01 04:43:14;;;;;;;10.43;7.75;;;18.00;95.70;;;;;;5014397;28;20038;-88
2021/07/01 04:45:40;;;;;;;8.88;7.55;;;18.00;95.70;;;;;;5004585;28;20073;-86
2021/07/01 04:48:06;;;;;;;10.05;7.43;;;17.90;95.70;;;;;;5008729;28;20060;-86
2021/07/01 04:50:32;;;;;;;9.57;6.95;;;18.00;95.70;;;;;;5025061;28;20076;-87
2021/07/01 04:52:58;;;;;;;9.00;7.53;;;17.90;95.70;;;;;;5010585;28;20421;-86
2021/07/01 04:55:24;;;;;;;11.07;7.22;;;18.00;95.90;;;;;;5009238;28;20041;-87
2021/07/01 04:57:49;;;;;;;8.50;6.75;;;18.00;95.80;;;;;;5019340;28;20014;-87
2021/07/01 05:00:15;;;;;;;8.10;7.05;;;18.00;95.70;;;;;;5021145;28;20057;-86
2021/07/01 05:02:40;;;;;;;10.25;7.38;;;18.00;95.80;;;;;;5013211;28;20044;-86
2021/07/01 05:05:06;;;;;;;9.05;7.15;;;18.10;95.70;;;;;;5007388;28;20108;-87
2021/07/01 05:07:32;;;;;;;8.27;6.78;;;18.20;95.50;;;;;;5011143;28;20302;-89
2021/07/01 05:09:57;;;;;;;12.60;7.95;;;18.20;95.40;;;;;;5024209;28;20037;-86
2021/07/01 05:12:23;;;;;;;10.55;8.00;;;18.30;95.40;;;;;;5012045;28;20046;-87
2021/07/01 05:14:48;;;;;;;10.13;7.80;;;18.30;95.50;;;;;;5007763;28;20378;-89
2021/07/01 05:17:15;;;;;;;12.20;8.02;;;18.40;95.40;;;;;;5001379;28;20034;-90
2021/07/01 05:19:40;;;;;;;9.30;7.45;;;18.50;95.40;;;;;;5012202;28;20034;-86
2021/07/01 05:22:06;;;;;;;9.90;7.63;;;18.40;95.20;;;;;;5010401;28;20053;-90
2021/07/01 05:24:32;;;;;;;10.07;7.57;;;18.50;95.10;;;;;;5010650;28;20073;-89
2021/07/01 05:26:57;;;;;;;12.60;7.80;;;18.50;94.90;;;;;;5008719;28;20514;-87
2021/07/01 05:29:23;;;;;;;13.13;7.45;;;18.60;94.90;;;;;;5015384;28;20041;-88
2021/07/01 05:31:49;;;;;;;10.63;7.85;;;18.50;95.00;;;;;;5017613;28;20049;-87
2021/07/01 05:34:15;;;;;;;8.75;6.85;;;18.60;94.80;;;;;;5017363;28;20072;-87
2021/07/01 05:36:40;;;;;;;9.02;6.95;;;18.70;94.90;;;;;;5017871;28;20046;-86
2021/07/01 05:39:06;;;;;;;8.30;6.90;;;18.70;94.50;;;;;;5027383;28;20038;-86
2021/07/01 05:41:32;;;;;;;11.05;7.07;;;18.70;94.40;;;;;;5018997;28;20029;-87
2021/07/01 05:44:00;;;;;;;10.27;6.50;;;18.60;94.20;;;;;;5019124;28;20037;-87
2021/07/01 05:46:27;;;;;;;10.23;6.80;;;18.70;94.70;;;;;;5018247;28;20065;-87
2021/07/01 05:48:52;;;;;;;8.88;6.70;;;18.80;94.30;;;;;;5012506;28;20437;-88
2021/07/01 05:51:18;;;;;;;8.07;6.60;;;18.80;94.10;;;;;;5011480;28;20069;-88
2021/07/01 05:54:12;;;;;;;6.70;5.82;;;18.80;94.20;;;;;;5005732;28;20077;-87
2021/07/01 05:56:37;;;;;;;7.30;5.50;;;18.80;93.90;;;;;;5018554;28;20034;-89
2021/07/01 05:59:08;;;;;;;6.22;5.03;;;18.80;94.00;;;;;;5014882;28;20065;-90
2021/07/01 06:01:35;;;;;;;8.80;5.85;;;18.80;94.10;;;;;;5001617;28;20467;-87
2021/07/01 06:04:05;;;;;;;6.85;4.70;;;18.80;93.90;;;;;;5001051;28;20042;-87
2021/07/01 06:06:35;;;;;;;4.85;3.80;;;18.80;93.70;;;;;;5010165;28;20469;-88
2021/07/01 06:09:05;;;;;;;5.32;4.50;;;18.70;93.70;;;;;;5004536;28;20121;-87
2021/07/01 06:11:35;;;;;;;5.43;4.25;;;18.70;93.70;;;;;;5006864;28;20044;-88
2021/07/01 06:14:07;;;;;;;6.53;4.22;;;18.70;93.70;;;;;;5013549;28;20537;-89
2021/07/01 06:16:35;;;;;;;7.15;3.80;;;18.70;93.80;;;;;;5019975;28;20042;-88
2021/07/01 06:19:03;;;;;;;6.00;4.38;;;18.70;93.80;;;;;;5016486;28;20251;-88
2021/07/01 06:21:29;;;;;;;7.50;3.50;;;18.80;93.90;;;;;;5017767;28;20088;-87
2021/07/01 06:23:55;;;;;;;4.55;3.72;;;18.80;93.70;;;;;;5014721;28;20058;-88
2021/07/01 06:26:28;;;;;;;4.90;4.13;;;18.90;93.30;;;;;;5013343;28;20026;-87
2021/07/01 06:28:54;;;;;;;8.48;3.85;;;18.90;93.50;;;;;;5009429;28;20030;-87
2021/07/01 06:31:20;;;;;;;4.28;3.78;;;18.90;93.00;;;;;;5018083;28;20038;-88
2021/07/01 06:33:46;;;;;;;9.23;3.70;;;18.80;93.00;;;;;;5016644;28;20097;-88
2021/07/01 06:36:13;;;;;;;4.03;3.60;;;18.80;93.00;;;;;;5019981;28;20033;-86
2021/07/01 06:38:46;;;;;;;4.70;3.20;;;18.80;93.00;;;;;;5024317;28;20065;-88
2021/07/01 06:41:14;;;;;;;5.47;3.53;;;18.80;92.80;;;;;;5049064;28;20042;-87
2021/07/01 06:43:43;;;;;;;4.35;3.10;;;18.80;93.10;;;;;;5015503;28;20049;-86
2021/07/01 06:46:11;;;;;;;4.32;3.40;;;18.90;92.90;;;;;;5027101;28;20329;-87
2021/07/01 06:48:38;;;;;;;7.63;3.70;;;18.90;92.80;;;;;;5025344;28;20424;-87
2021/07/01 06:51:06;;;;;;;9.10;3.95;;;18.90;92.50;;;;;;5025985;28;20040;-85
2021/07/01 06:53:35;;;;;;;5.85;3.65;;;18.80;92.70;;;;;;5027773;28;20076;-85
2021/07/01 06:56:01;;;;;;;6.35;3.35;;;18.80;93.30;;;;;;5027438;28;20042;-88
2021/07/01 06:58:27;;;;;;;4.75;3.50;;;18.80;93.20;;;;;;5026206;28;20044;-87
2021/07/01 07:00:54;;;;;;;8.50;4.13;;;18.80;93.00;;;;;;5019228;28;20283;-87
2021/07/01 07:03:19;;;;;;;5.65;3.47;;;18.90;93.10;;;;;;5019671;28;20052;-87
2021/07/01 07:05:49;;;;;;;4.13;2.70;;;19.00;92.60;;;;;;5017822;28;20046;-88
2021/07/01 07:08:15;;;;;;;6.20;3.65;;;19.00;92.40;;;;;;5018232;28;20038;-87
2021/07/01 07:10:42;;;;;;;11.35;3.85;;;19.00;92.50;;;;;;5018190;28;20115;-87
2021/07/01 07:13:08;;;;;;;4.78;3.50;;;19.10;92.50;;;;;;5017404;28;20058;-87
2021/07/01 07:15:34;;;;;;;5.15;3.10;;;19.10;92.20;;;;;;5055187;28;20042;-87
2021/07/01 07:18:15;;;;;;;9.30;3.92;;;19.20;92.20;;;;;;5027988;28;20306;-86
2021/07/01 07:20:43;;;;;;;4.65;3.33;;;19.30;91.80;;;;;;5017955;28;20037;-87
2021/07/01 07:23:14;;;;;;;4.35;2.90;;;19.40;91.50;;;;;;5018081;28;20045;-86
2021/07/01 07:25:41;;;;;;;5.55;3.42;;;19.20;91.20;;;;;;5012105;28;20049;-89
2021/07/01 07:28:09;;;;;;;5.10;2.88;;;19.20;91.50;;;;;;5015349;28;20298;-86
2021/07/01 07:30:35;;;;;;;6.60;2.92;;;19.10;91.90;;;;;;5016749;28;20372;-89
2021/07/01 07:33:06;;;;;;;4.47;3.13;;;19.10;92.00;;;;;;5017284;28;20053;-87
2021/07/01 07:35:33;;;;;;;17.08;8.52;;;19.00;91.60;;;;;;5016000;28;20072;-88
2021/07/01 07:37:59;;;;;;;4.68;3.78;;;18.80;92.10;;;;;;5017057;28;20160;-85
2021/07/01 07:40:26;;;;;;;7.22;3.67;;;18.80;92.50;;;;;;5017619;28;20034;-88
2021/07/01 07:42:51;;;;;;;5.55;4.30;;;18.90;92.00;;;;;;5017731;28;20038;-88
2021/07/01 07:45:18;;;;;;;15.75;5.65;;;19.00;92.30;;;;;;5017379;28;20045;-87
2021/07/01 07:47:44;;;;;;;6.18;2.78;;;19.10;92.10;;;;;;5017225;28;20038;-87
2021/07/01 07:50:12;;;;;;;4.85;2.22;;;19.20;91.80;;;;;;5027896;28;20076;-87
2021/07/01 07:52:48;;;;;;;5.13;3.00;;;19.20;92.20;;;;;;5024453;28;20042;-87
2021/07/01 07:55:16;;;;;;;4.35;2.10;;;19.30;91.50;;;;;;5023181;28;20037;-90
2021/07/01 07:57:45;;;;;;;3.92;2.05;;;19.40;91.50;;;;;;5017303;28;20405;-89
2021/07/01 08:00:11;;;;;;;5.65;2.22;;;19.50;91.70;;;;;;5017775;28;20064;-89
2021/07/01 08:02:43;;;;;;;3.13;2.08;;;19.60;90.40;;;;;;5017515;28;20037;-88
2021/07/01 08:05:10;;;;;;;1.67;1.40;;;19.60;90.70;;;;;;5016645;28;20034;-88
2021/07/01 08:07:38;;;;;;;2.08;1.38;;;19.60;89.30;;;;;;5016160;28;20133;-88
2021/07/01 08:10:11;;;;;;;4.60;1.55;;;19.40;89.30;;;;;;5015288;28;20426;-87
2021/07/01 08:12:41;;;;;;;;;;;19.30;90.00;;;;;;5018461;28;20151;-90
2021/07/01 08:15:15;;;;;;;1.95;1.30;;;19.30;88.70;;;;;;5015248;28;19913;-87
2021/07/01 08:17:43;;;;;;;2.35;1.50;;;19.20;88.60;;;;;;5018254;28;20049;-89
2021/07/01 08:20:14;;;;;;;4.05;1.40;;;19.20;89.60;;;;;;5033583;28;20038;-89
2021/07/01 08:22:46;;;;;;;2.30;1.77;;;19.30;89.20;;;;;;5021327;28;20049;-88
2021/07/01 08:25:12;;;;;;;1.90;1.38;;;19.60;88.40;;;;;;5023726;28;20712;-89
2021/07/01 08:27:41;;;;;;;1.48;1.05;;;19.80;88.50;;;;;;5042430;28;20042;-89
2021/07/01 08:30:08;;;;;;;1.60;1.27;;;20.00;86.90;;;;;;5017274;28;20080;-87
2021/07/01 08:32:34;;;;;;;6.18;1.00;;;20.00;86.20;;;;;;5014806;28;20360;-88
2021/07/01 08:35:00;;;;;;;1.45;1.27;;;20.00;85.50;;;;;;5015633;28;20041;-87
2021/07/01 08:37:27;;;;;;;2.60;0.85;;;20.10;86.40;;;;;;5014925;28;20164;-89
2021/07/01 08:39:54;;;;;;;2.03;1.23;;;20.00;86.30;;;;;;5031754;28;20058;-88
2021/07/01 08:42:25;;;;;;;1.60;1.23;;;20.00;85.90;;;;;;5016330;28;20359;-87
2021/07/01 08:45:00;;;;;;;2.03;1.20;;;20.00;85.70;;;;;;5015762;28;20448;-87
2021/07/01 08:47:33;;;;;;;3.92;1.73;;;20.00;86.80;;;;;;5016576;28;20045;-90
2021/07/01 08:50:04;;;;;;;1.83;1.20;;;20.00;85.90;;;;;;5033380;28;20038;-88
2021/07/01 08:52:31;;;;;;;3.67;1.98;;;19.90;86.40;;;;;;5016198;28;20041;-88
2021/07/01 08:55:06;;;;;;;3.28;1.50;;;19.90;86.20;;;;;;5016536;28;20069;-87
2021/07/01 08:57:36;;;;;;;2.03;1.35;;;19.80;86.80;;;;;;5015867;28;20041;-88
2021/07/01 09:00:13;;;;;;;6.00;1.83;;;19.80;87.00;;;;;;5006251;28;20046;-88
2021/07/01 09:02:45;;;;;;;11.40;2.80;;;19.80;86.50;;;;;;5020968;28;20099;-88
2021/07/01 09:05:15;;;;;;;2.33;1.65;;;19.70;88.00;;;;;;5047586;28;20145;-88
2021/07/01 09:07:41;;;;;;;2.20;1.30;;;19.70;87.50;;;;;;5009146;28;20054;-88
2021/07/01 09:10:10;;;;;;;3.25;1.55;;;19.60;87.10;;;;;;5013759;28;20138;-88
2021/07/01 09:12:41;;;;;;;3.15;1.85;;;19.50;88.30;;;;;;5007424;28;20050;-87
2021/07/01 09:15:09;;;;;;;3.05;2.00;;;19.40;88.80;;;;;;5015127;28;20124;-88
2021/07/01 09:17:36;;;;;;;2.08;1.30;;;19.40;88.80;;;;;;5013036;28;20030;-87
2021/07/01 09:20:08;;;;;;;5.32;1.52;;;19.50;87.70;;;;;;5000618;28;20125;-88
2021/07/01 09:22:35;;;;;;;2.35;1.15;;;19.50;87.10;;;;;;5032118;28;20121;-89
2021/07/01 09:25:00;;;;;;;5.40;2.13;;;19.60;86.90;;;;;;5016321;28;20042;-85
2021/07/01 09:27:27;;;;;;;2.75;1.05;;;19.60;87.10;;;;;;5015100;28;20038;-86
2021/07/01 09:29:54;;;;;;;1.98;1.00;;;19.50;86.60;;;;;;5015534;28;20038;-86
2021/07/01 09:32:21;;;;;;;1.77;1.30;;;19.40;87.10;;;;;;5021739;28;20057;-87
2021/07/01 09:34:48;;;;;;;2.67;1.30;;;19.50;87.60;;;;;;5036979;28;20117;-87
2021/07/01 09:37:21;;;;;;;2.35;1.20;;;19.60;87.60;;;;;;5031081;28;20034;-88
2021/07/01 09:39:48;;;;;;;1.55;1.05;;;19.60;86.50;;;;;;5023357;28;20069;-89
2021/07/01 09:42:14;;;;;;;10.98;1.83;;;19.70;86.80;;;;;;5025311;28;20034;-89
2021/07/01 09:44:41;;;;;;;1.98;1.20;;;19.80;87.50;;;;;;5034047;28;20046;-87
2021/07/01 09:47:10;;;;;;;8.23;1.70;;;20.00;86.90;;;;;;5017666;28;20045;-89
2021/07/01 09:49:38;;;;;;;3.05;1.30;;;20.00;86.50;;;;;;5019080;28;20042;-88
2021/07/01 09:52:13;;;;;;;3.50;1.65;;;20.10;86.00;;;;;;5018457;28;20034;-89
2021/07/01 09:54:48;;;;;;;3.70;1.05;;;20.20;85.70;;;;;;5028695;28;20048;-88
2021/07/01 09:57:19;;;;;;;2.35;1.30;;;20.30;85.50;;;;;;5025146;28;20102;-87
2021/07/01 09:59:52;;;;;;;1.67;1.20;;;20.30;85.10;;;;;;5021236;28;20481;-87
2021/07/01 10:02:20;;;;;;;1.90;0.98;;;20.30;85.50;;;;;;5018938;28;20046;-88
2021/07/01 10:04:47;;;;;;;3.05;1.10;;;20.50;84.50;;;;;;5019704;28;20034;-87
2021/07/01 10:07:23;;;;;;;4.45;1.00;;;20.50;85.20;;;;;;5017970;28;20038;-89
2021/07/01 10:10:09;;;;;;;2.70;0.90;;;20.40;84.20;;;;;;5018366;28;20258;-88
2021/07/01 10:12:54;;;;;;;1.25;1.10;;;20.50;84.50;;;;;;5021666;28;20069;-87
2021/07/01 10:15:31;;;;;;;2.67;1.00;;;20.60;85.60;;;;;;5016189;28;20040;-88
2021/07/01 10:18:18;;;;;;;1.17;0.70;;;20.80;82.90;;;;;;5014728;28;20030;-88
2021/07/01 10:20:49;;;;;;;1.70;0.80;;;20.80;82.30;;;;;;5041216;28;20345;-88
2021/07/01 10:23:28;;;;;;;26.05;6.05;;;21.00;82.90;;;;;;5015974;28;20111;-87
2021/07/01 10:25:56;;;;;;;1.40;0.80;;;21.10;82.90;;;;;;5024916;28;20046;-88
2021/07/01 10:28:23;;;;;;;2.92;1.50;;;21.20;81.00;;;;;;5015219;28;20026;-89
2021/07/01 10:31:01;;;;;;;1.70;0.88;;;21.30;80.80;;;;;;5015110;28;20034;-92
2021/07/01 10:33:33;;;;;;;1.67;0.80;;;21.30;80.50;;;;;;5018039;28;20065;-90
2021/07/01 10:36:02;;;;;;;0.97;0.80;;;21.30;80.20;;;;;;5031019;28;20044;-91
2021/07/01 10:38:39;;;;;;;1.55;0.80;;;21.20;80.50;;;;;;5036679;28;20120;-93
2021/07/01 10:41:05;;;;;;;1.70;0.75;;;21.20;80.80;;;;;;5037170;28;20101;-93
2021/07/01 10:43:42;;;;;;;10.40;3.33;;;21.40;80.40;;;;;;5033185;28;20140;-82
2021/07/01 10:46:08;;;;;;;1.40;0.90;;;21.30;82.00;;;;;;5018387;28;20050;-84
2021/07/01 10:48:34;;;;;;;1.85;1.00;;;21.20;80.90;;;;;;5012421;28;20341;-84
2021/07/01 10:51:12;;;;;;;3.90;2.03;;;21.20;82.40;;;;;;5012983;28;20397;-82
2021/07/01 10:53:40;;;;;;;1.88;0.82;;;21.10;83.40;;;;;;5004416;28;20109;-90
2021/07/01 10:56:20;;;;;;;1.77;1.00;;;21.10;81.60;;;;;;5028476;28;20065;-89
2021/07/01 10:58:57;;;;;;;3.33;0.98;;;21.00;81.60;;;;;;5010948;28;20042;-89
2021/07/01 11:01:29;;;;;;;11.40;1.60;;;20.90;80.80;;;;;;5016260;28;20096;-91
2021/07/01 11:04:15;;;;;;;3.65;0.93;;;20.90;82.90;;;;;;5015258;28;20491;-89
2021/07/01 11:06:43;;;;;;;4.18;1.00;;;21.00;82.00;;;;;;5015577;28;20397;-89
2021/07/01 11:09:11;;;;;;;0.98;0.88;;;21.10;82.40;;;;;;5015636;28;20369;-90
2021/07/01 11:11:39;;;;;;;0.85;0.70;;;21.20;81.00;;;;;;5048527;28;20046;-90
2021/07/01 11:14:10;;;;;;;1.90;1.02;;;21.20;80.80;;;;;;5016728;28;20034;-90
2021/07/01 11:16:43;;;;;;;4.32;1.67;;;21.20;80.00;;;;;;5018356;28;20064;-91
2021/07/01 11:19:21;;;;;;;1.90;1.30;;;21.10;81.30;;;;;;5017115;28;20038;-89
2021/07/01 11:21:58;;;;;;;2.38;0.90;;;21.00;80.60;;;;;;5016399;28;20034;-90
2021/07/01 11:24:26;;;;;;;2.67;0.90;;;20.80;80.90;;;;;;5022874;28;20056;-90
2021/07/01 11:26:54;;;;;;;1.88;1.00;;;20.70;81.00;;;;;;5014070;28;20072;-89
2021/07/01 11:29:43;;;;;;;1.15;0.82;;;20.50;81.20;;;;;;5019411;28;20057;-90
2021/07/01 11:32:24;;;;;;;1.02;0.60;;;20.30;83.20;;;;;;5014874;28;20448;-89
2021/07/01 11:34:51;;;;;;;1.63;0.90;;;20.20;83.20;;;;;;4998349;28;20132;-88
2021/07/01 11:37:39;;;;;;;2.10;0.80;;;20.20;83.20;;;;;;5015608;28;20038;-89
2021/07/01 11:40:19;;;;;;;1.55;0.75;;;20.30;83.70;;;;;;5020522;28;20044;-89
2021/07/01 11:42:45;;;;;;;2.38;0.80;;;20.30;81.70;;;;;;5047221;28;20122;-90
2021/07/01 11:45:12;;;;;;;3.38;0.60;;;20.30;82.10;;;;;;5019247;28;20041;-89
2021/07/01 11:47:40;;;;;;;2.15;0.90;;;20.30;82.40;;;;;;5020217;28;20041;-90
2021/07/01 11:50:08;;;;;;;7.25;1.17;;;20.20;83.10;;;;;;5037346;28;20069;-87
2021/07/01 11:52:33;;;;;;;2.40;1.00;;;20.10;84.20;;;;;;5034333;28;20366;-91
2021/07/01 11:55:00;;;;;;;1.00;0.90;;;20.10;84.20;;;;;;5018303;28;20061;-87
2021/07/01 11:57:29;;;;;;;1.20;0.80;;;19.90;84.40;;;;;;5018693;28;20044;-87
2021/07/01 11:59:56;;;;;;;2.58;1.00;;;19.90;85.20;;;;;;5023745;28;20049;-89
2021/07/01 12:02:22;;;;;;;1.58;1.00;;;19.90;84.60;;;;;;5040945;28;20125;-88
2021/07/01 12:04:49;;;;;;;3.28;1.42;;;19.80;84.30;;;;;;5034605;28;20120;-88
2021/07/01 12:07:30;;;;;;;1.55;1.05;;;19.80;84.80;;;;;;5033356;28;20048;-90
2021/07/01 12:09:57;;;;;;;1.33;1.02;;;19.70;86.10;;;;;;5034439;28;20459;-88
2021/07/01 12:12:26;;;;;;;2.35;1.00;;;19.60;85.60;;;;;;5034866;28;20038;-90
2021/07/01 12:15:12;;;;;;;1.60;1.13;;;19.60;86.20;;;;;;5018161;28;20033;-90
2021/07/01 12:18:06;;;;;;;1.10;0.93;;;19.80;85.00;;;;;;5017518;28;20048;-90
2021/07/01 12:20:47;;;;;;;1.80;1.10;;;19.80;84.60;;;;;;5017935;28;20044;-91
2021/07/01 12:23:13;;;;;;;1.40;1.02;;;19.80;84.60;;;;;;5018667;28;20038;-91
2021/07/01 12:25:40;;;;;;;1.58;1.00;;;19.80;86.00;;;;;;5039225;28;20299;-90
2021/07/01 12:28:08;;;;;;;3.75;1.10;;;19.90;85.50;;;;;;5028844;28;20042;-90
2021/07/01 12:30:57;;;;;;;1.10;1.00;;;20.00;84.30;;;;;;5028305;28;20072;-89
2021/07/01 12:33:57;;;;;;;1.30;0.77;;;20.00;85.10;;;;;;5031948;28;20057;-89
2021/07/01 12:36:26;;;;;;;1.20;0.80;;;20.10;85.50;;;;;;5021407;28;20041;-89
2021/07/01 12:39:16;;;;;;;0.90;0.80;;;20.10;84.20;;;;;;5022880;28;20065;-89
2021/07/01 12:41:44;;;;;;;3.17;0.73;;;20.20;84.00;;;;;;5018908;28;20030;-90
2021/07/01 12:44:22;;;;;;;4.07;0.98;;;20.20;83.80;;;;;;5031788;28;20064;-89
2021/07/01 12:46:47;;;;;;;2.55;0.90;;;20.20;84.30;;;;;;5032904;28;20077;-91
2021/07/01 12:49:23;;;;;;;1.70;0.88;;;20.10;85.40;;;;;;5021315;28;20052;-91
2021/07/01 12:51:58;;;;;;;0.75;0.73;;;20.10;84.60;;;;;;5026663;28;20026;-89